Метеостанция


АнтоновUKKM 220430Z AUTO 34006MPS 9999 // NSC M06/M16 Q1018
БориспольUKBB 220430Z 33006MPS CAVOK M05/M11 Q1018 R88/CLRD// NOSIG
Гаврышовка (Винница)UKWW 220430Z 01004MPS 2200 -SHSN BR SCT009 BKN014CB M04/M05 Q1016 NOSIG
ДнепропетровскUKDD 220430Z 33004MPS CAVOK M05/M12 Q1015 R26/090070 NOSIG
ЖуляныUKKK 220430Z 36005MPS CAVOK M05/M14 Q1018 R26/190060 NOSIG
Запорожье(Мокрая)UKDE 220430Z 31003MPS CAVOK M05/M08 Q1016 R02R/090070 NOSIG
Ивано-ФранковскUKLI 220430Z 30003MPS 260V350 6000 -SHRA BKN012CB BKN020 03/03 Q1015 R28/290560 NOSIG
Кривой РогUKDR 220430Z 36003MPS CAVOK M04/M08 Q1016 R36/09//70 NOSIG
ЛьвовUKLL 220430Z 06007MPS 1900 SHSN BKN005 BKN016CB M02/M03 Q1018 R31/520340 NOSIG
НиколаевUKON 220400Z 08005MPS 1800 SHSN BKN007 BKN///CB M00/M03 Q1016 NOSIG
ОдессаUKOO 220430Z 27004MPS 7000 -SHRA FEW018CB BKN025 04/03 Q1015 R16/290054 NOSIG
РовноUKLR 220430Z 04007MPS 9999 SCT026 M05/M10 Q1020 NOSIG
УжгородUKLU 220400Z 00000MPS 2100 -RA BR OVC011 03/03 Q1018 NOSIG
ХарьковUKHH 220430Z 30005MPS CAVOK M08/M12 Q1013 R25/420272 NOSIG
ЧерновцыUKLN 220430Z 27002MPS 230V310 6000 -SHRA BKN013 BKN///CB 04/03 Q1014 R33/290260 TEMPO 04008G13MPS 0700 +SHRASN BKN003 BKN015CB
Скачать:
Скачать этот файл (Metar_шпаргалка.jpg)Расшифровка METAR[ ]4799 Кб
Вся информация, которая имеется в использовании на сайте и доступная для скачивания, получена исключительно из открытых источников информации сети Интернет, всякое совпадение с данными, имеющими ограничения в доступе, случайное и не является преднамеренным.
^ Наверх